sensor_id;sensor_type;location;lat;lon;timestamp;P1;durP1;ratioP1;P2;durP2;ratioP2
5776;SDS011;2914;42.668;23.346;2023-02-12T00:01:27;27.40;;;10.40;;
5776;SDS011;2914;42.668;23.346;2023-02-12T00:04:04;25.17;;;10.20;;
5776;SDS011;2914;42.668;23.346;2023-02-12T00:06:33;30.13;;;11.97;;
5776;SDS011;2914;42.668;23.346;2023-02-12T00:09:04;19.70;;;9.50;;
5776;SDS011;2914;42.668;23.346;2023-02-12T00:11:33;23.00;;;9.40;;
5776;SDS011;2914;42.668;23.346;2023-02-12T00:16:20;20.93;;;9.90;;
5776;SDS011;2914;42.668;23.346;2023-02-12T00:18:50;17.37;;;9.23;;
5776;SDS011;2914;42.668;23.346;2023-02-12T00:21:20;17.40;;;8.97;;
5776;SDS011;2914;42.668;23.346;2023-02-12T00:23:50;23.13;;;10.57;;
5776;SDS011;2914;42.668;23.346;2023-02-12T00:26:20;17.57;;;10.17;;
5776;SDS011;2914;42.668;23.346;2023-02-12T00:28:49;23.23;;;10.40;;
5776;SDS011;2914;42.668;23.346;2023-02-12T00:31:19;17.83;;;9.23;;
5776;SDS011;2914;42.668;23.346;2023-02-12T00:33:50;18.60;;;9.40;;
5776;SDS011;2914;42.668;23.346;2023-02-12T00:36:28;19.50;;;9.77;;
5776;SDS011;2914;42.668;23.346;2023-02-12T00:38:58;21.23;;;10.80;;
5776;SDS011;2914;42.668;23.346;2023-02-12T00:41:36;33.60;;;12.70;;
5776;SDS011;2914;42.668;23.346;2023-02-12T00:46:41;25.07;;;12.03;;
5776;SDS011;2914;42.668;23.346;2023-02-12T00:49:11;24.67;;;10.80;;
5776;SDS011;2914;42.668;23.346;2023-02-12T00:51:48;18.13;;;9.57;;
5776;SDS011;2914;42.668;23.346;2023-02-12T00:54:19;19.47;;;9.90;;
5776;SDS011;2914;42.668;23.346;2023-02-12T00:57:18;15.57;;;10.10;;
5776;SDS011;2914;42.668;23.346;2023-02-12T00:59:47;17.47;;;10.30;;
5776;SDS011;2914;42.668;23.346;2023-02-12T01:02:25;19.00;;;9.93;;
5776;SDS011;2914;42.668;23.346;2023-02-12T01:07:30;16.70;;;9.30;;
5776;SDS011;2914;42.668;23.346;2023-02-12T01:09:59;19.37;;;9.90;;
5776;SDS011;2914;42.668;23.346;2023-02-12T01:12:28;23.97;;;9.57;;
5776;SDS011;2914;42.668;23.346;2023-02-12T01:14:57;23.70;;;11.33;;
5776;SDS011;2914;42.668;23.346;2023-02-12T01:20:03;20.93;;;9.33;;
5776;SDS011;2914;42.668;23.346;2023-02-12T01:22:35;17.57;;;9.87;;
5776;SDS011;2914;42.668;23.346;2023-02-12T01:25:13;21.63;;;9.70;;
5776;SDS011;2914;42.668;23.346;2023-02-12T01:27:43;17.23;;;9.83;;
5776;SDS011;2914;42.668;23.346;2023-02-12T01:30:27;17.17;;;9.80;;
5776;SDS011;2914;42.668;23.346;2023-02-12T01:32:56;20.33;;;10.60;;
5776;SDS011;2914;42.668;23.346;2023-02-12T01:35:35;27.67;;;11.53;;
5776;SDS011;2914;42.668;23.346;2023-02-12T01:38:04;28.50;;;12.30;;
5776;SDS011;2914;42.668;23.346;2023-02-12T01:40:42;23.80;;;10.30;;
5776;SDS011;2914;42.668;23.346;2023-02-12T01:43:11;20.47;;;10.27;;
5776;SDS011;2914;42.668;23.346;2023-02-12T01:45:59;22.83;;;11.20;;
5776;SDS011;2914;42.668;23.346;2023-02-12T01:48:29;21.40;;;11.70;;
5776;SDS011;2914;42.668;23.346;2023-02-12T01:51:01;17.73;;;10.50;;
5776;SDS011;2914;42.668;23.346;2023-02-12T01:53:34;27.23;;;10.47;;
5776;SDS011;2914;42.668;23.346;2023-02-12T01:56:05;17.57;;;10.27;;
5776;SDS011;2914;42.668;23.346;2023-02-12T01:58:37;21.97;;;11.23;;
5776;SDS011;2914;42.668;23.346;2023-02-12T02:01:08;17.63;;;10.70;;
5776;SDS011;2914;42.668;23.346;2023-02-12T02:03:40;23.87;;;12.03;;
5776;SDS011;2914;42.668;23.346;2023-02-12T02:06:11;20.43;;;11.00;;
5776;SDS011;2914;42.668;23.346;2023-02-12T02:08:43;23.93;;;11.93;;
5776;SDS011;2914;42.668;23.346;2023-02-12T02:11:13;22.00;;;11.10;;
5776;SDS011;2914;42.668;23.346;2023-02-12T02:13:51;23.93;;;11.20;;
5776;SDS011;2914;42.668;23.346;2023-02-12T02:16:54;18.23;;;11.20;;
5776;SDS011;2914;42.668;23.346;2023-02-12T02:19:30;20.70;;;10.67;;
5776;SDS011;2914;42.668;23.346;2023-02-12T02:22:06;21.00;;;11.80;;
5776;SDS011;2914;42.668;23.346;2023-02-12T02:24:49;30.50;;;12.90;;
5776;SDS011;2914;42.668;23.346;2023-02-12T02:27:26;28.17;;;11.67;;
5776;SDS011;2914;42.668;23.346;2023-02-12T02:30:12;29.97;;;13.43;;
5776;SDS011;2914;42.668;23.346;2023-02-12T02:33:23;27.50;;;12.23;;
5776;SDS011;2914;42.668;23.346;2023-02-12T02:35:59;21.97;;;12.43;;
5776;SDS011;2914;42.668;23.346;2023-02-12T02:38:32;19.60;;;10.90;;
5776;SDS011;2914;42.668;23.346;2023-02-12T02:41:03;21.80;;;10.47;;
5776;SDS011;2914;42.668;23.346;2023-02-12T02:43:35;24.53;;;13.43;;
5776;SDS011;2914;42.668;23.346;2023-02-12T02:46:07;25.03;;;11.83;;
5776;SDS011;2914;42.668;23.346;2023-02-12T02:48:40;25.37;;;11.47;;
5776;SDS011;2914;42.668;23.346;2023-02-12T02:51:13;25.33;;;11.97;;
5776;SDS011;2914;42.668;23.346;2023-02-12T02:53:46;26.17;;;12.47;;
5776;SDS011;2914;42.668;23.346;2023-02-12T02:56:18;26.57;;;12.33;;
5776;SDS011;2914;42.668;23.346;2023-02-12T02:58:49;26.40;;;13.17;;
5776;SDS011;2914;42.668;23.346;2023-02-12T03:01:21;22.90;;;12.20;;
5776;SDS011;2914;42.668;23.346;2023-02-12T03:03:55;26.30;;;12.70;;
5776;SDS011;2914;42.668;23.346;2023-02-12T03:06:29;22.57;;;10.60;;
5776;SDS011;2914;42.668;23.346;2023-02-12T03:09:00;26.77;;;11.70;;
5776;SDS011;2914;42.668;23.346;2023-02-12T03:11:32;26.53;;;12.67;;
5776;SDS011;2914;42.668;23.346;2023-02-12T03:14:03;26.67;;;12.53;;
5776;SDS011;2914;42.668;23.346;2023-02-12T03:16:35;29.33;;;12.40;;
5776;SDS011;2914;42.668;23.346;2023-02-12T03:19:07;23.77;;;11.67;;
5776;SDS011;2914;42.668;23.346;2023-02-12T03:21:40;40.03;;;14.00;;
5776;SDS011;2914;42.668;23.346;2023-02-12T03:24:11;31.07;;;12.50;;
5776;SDS011;2914;42.668;23.346;2023-02-12T03:26:45;34.70;;;12.60;;
5776;SDS011;2914;42.668;23.346;2023-02-12T03:29:16;25.30;;;11.43;;
5776;SDS011;2914;42.668;23.346;2023-02-12T03:31:47;34.73;;;13.50;;
5776;SDS011;2914;42.668;23.346;2023-02-12T03:34:24;24.87;;;13.53;;
5776;SDS011;2914;42.668;23.346;2023-02-12T03:36:56;26.97;;;12.77;;
5776;SDS011;2914;42.668;23.346;2023-02-12T03:40:45;28.87;;;13.80;;
5776;SDS011;2914;42.668;23.346;2023-02-12T03:43:18;30.50;;;14.30;;
5776;SDS011;2914;42.668;23.346;2023-02-12T03:46:38;28.40;;;14.27;;
5776;SDS011;2914;42.668;23.346;2023-02-12T03:49:08;26.27;;;12.70;;
5776;SDS011;2914;42.668;23.346;2023-02-12T03:51:39;23.90;;;13.20;;
5776;SDS011;2914;42.668;23.346;2023-02-12T03:54:10;31.60;;;15.43;;
5776;SDS011;2914;42.668;23.346;2023-02-12T03:56:42;28.23;;;14.37;;
5776;SDS011;2914;42.668;23.346;2023-02-12T03:59:14;29.17;;;13.37;;
5776;SDS011;2914;42.668;23.346;2023-02-12T04:01:44;38.53;;;15.20;;
5776;SDS011;2914;42.668;23.346;2023-02-12T04:04:14;30.17;;;15.10;;
5776;SDS011;2914;42.668;23.346;2023-02-12T04:06:52;25.80;;;13.07;;
5776;SDS011;2914;42.668;23.346;2023-02-12T04:09:22;33.40;;;15.50;;
5776;SDS011;2914;42.668;23.346;2023-02-12T04:11:57;33.07;;;15.10;;
5776;SDS011;2914;42.668;23.346;2023-02-12T04:14:34;34.07;;;14.67;;
5776;SDS011;2914;42.668;23.346;2023-02-12T04:17:43;28.07;;;13.17;;
5776;SDS011;2914;42.668;23.346;2023-02-12T04:20:14;27.87;;;14.40;;
5776;SDS011;2914;42.668;23.346;2023-02-12T04:22:48;29.07;;;15.10;;
5776;SDS011;2914;42.668;23.346;2023-02-12T04:25:31;26.57;;;14.63;;
5776;SDS011;2914;42.668;23.346;2023-02-12T04:27:58;31.33;;;14.83;;
5776;SDS011;2914;42.668;23.346;2023-02-12T04:30:31;25.43;;;13.43;;
5776;SDS011;2914;42.668;23.346;2023-02-12T04:33:02;32.13;;;15.03;;
5776;SDS011;2914;42.668;23.346;2023-02-12T04:35:34;29.20;;;14.90;;
5776;SDS011;2914;42.668;23.346;2023-02-12T04:38:07;23.87;;;14.90;;
5776;SDS011;2914;42.668;23.346;2023-02-12T04:40:38;36.33;;;15.23;;
5776;SDS011;2914;42.668;23.346;2023-02-12T04:43:09;28.17;;;15.10;;
5776;SDS011;2914;42.668;23.346;2023-02-12T04:45:38;26.57;;;13.50;;
5776;SDS011;2914;42.668;23.346;2023-02-12T04:48:08;25.40;;;13.10;;
5776;SDS011;2914;42.668;23.346;2023-02-12T04:50:39;40.20;;;15.07;;
5776;SDS011;2914;42.668;23.346;2023-02-12T04:53:10;31.80;;;14.70;;
5776;SDS011;2914;42.668;23.346;2023-02-12T04:55:39;35.53;;;15.27;;
5776;SDS011;2914;42.668;23.346;2023-02-12T04:58:08;32.87;;;15.10;;
5776;SDS011;2914;42.668;23.346;2023-02-12T05:00:37;34.67;;;16.10;;
5776;SDS011;2914;42.668;23.346;2023-02-12T05:03:06;27.07;;;13.47;;
5776;SDS011;2914;42.668;23.346;2023-02-12T05:05:35;29.47;;;13.73;;
5776;SDS011;2914;42.668;23.346;2023-02-12T05:08:04;24.97;;;12.80;;
5776;SDS011;2914;42.668;23.346;2023-02-12T05:10:42;25.93;;;12.73;;
5776;SDS011;2914;42.668;23.346;2023-02-12T05:13:11;30.97;;;13.70;;
5776;SDS011;2914;42.668;23.346;2023-02-12T05:15:49;26.80;;;13.53;;
5776;SDS011;2914;42.668;23.346;2023-02-12T05:18:18;24.97;;;13.30;;
5776;SDS011;2914;42.668;23.346;2023-02-12T05:20:54;30.17;;;13.57;;
5776;SDS011;2914;42.668;23.346;2023-02-12T05:23:27;29.27;;;12.43;;
5776;SDS011;2914;42.668;23.346;2023-02-12T05:25:57;30.33;;;13.00;;
5776;SDS011;2914;42.668;23.346;2023-02-12T05:31:34;33.37;;;15.00;;
5776;SDS011;2914;42.668;23.346;2023-02-12T05:34:05;28.60;;;13.03;;
5776;SDS011;2914;42.668;23.346;2023-02-12T05:36:36;26.17;;;13.17;;
5776;SDS011;2914;42.668;23.346;2023-02-12T05:39:06;30.50;;;13.80;;
5776;SDS011;2914;42.668;23.346;2023-02-12T05:41:36;23.20;;;12.37;;
5776;SDS011;2914;42.668;23.346;2023-02-12T05:44:05;29.20;;;11.97;;
5776;SDS011;2914;42.668;23.346;2023-02-12T05:46:36;22.20;;;11.57;;
5776;SDS011;2914;42.668;23.346;2023-02-12T05:49:05;27.93;;;12.80;;
5776;SDS011;2914;42.668;23.346;2023-02-12T05:51:35;33.03;;;13.67;;
5776;SDS011;2914;42.668;23.346;2023-02-12T05:54:06;32.23;;;13.57;;
5776;SDS011;2914;42.668;23.346;2023-02-12T05:56:38;36.27;;;12.87;;
5776;SDS011;2914;42.668;23.346;2023-02-12T05:59:13;27.07;;;12.47;;
5776;SDS011;2914;42.668;23.346;2023-02-12T06:01:43;28.57;;;14.50;;
5776;SDS011;2914;42.668;23.346;2023-02-12T06:04:15;35.83;;;13.60;;
5776;SDS011;2914;42.668;23.346;2023-02-12T06:06:45;31.60;;;13.27;;
5776;SDS011;2914;42.668;23.346;2023-02-12T06:09:14;31.60;;;13.47;;
5776;SDS011;2914;42.668;23.346;2023-02-12T06:11:44;24.17;;;12.47;;
5776;SDS011;2914;42.668;23.346;2023-02-12T06:15:24;30.07;;;13.70;;
5776;SDS011;2914;42.668;23.346;2023-02-12T06:17:55;20.50;;;11.33;;
5776;SDS011;2914;42.668;23.346;2023-02-12T06:20:26;24.00;;;12.60;;
5776;SDS011;2914;42.668;23.346;2023-02-12T06:22:55;19.30;;;10.80;;
5776;SDS011;2914;42.668;23.346;2023-02-12T06:25:24;23.27;;;11.10;;
5776;SDS011;2914;42.668;23.346;2023-02-12T06:27:53;25.03;;;12.17;;
5776;SDS011;2914;42.668;23.346;2023-02-12T06:30:22;18.63;;;10.33;;
5776;SDS011;2914;42.668;23.346;2023-02-12T06:32:52;23.53;;;12.17;;
5776;SDS011;2914;42.668;23.346;2023-02-12T06:35:21;25.07;;;11.50;;
5776;SDS011;2914;42.668;23.346;2023-02-12T06:37:50;19.83;;;11.20;;
5776;SDS011;2914;42.668;23.346;2023-02-12T06:40:19;26.20;;;11.87;;
5776;SDS011;2914;42.668;23.346;2023-02-12T06:42:49;26.33;;;12.87;;
5776;SDS011;2914;42.668;23.346;2023-02-12T06:45:18;21.20;;;10.90;;
5776;SDS011;2914;42.668;23.346;2023-02-12T06:47:47;24.10;;;12.10;;
5776;SDS011;2914;42.668;23.346;2023-02-12T06:50:17;23.40;;;12.20;;
5776;SDS011;2914;42.668;23.346;2023-02-12T06:52:46;25.20;;;12.07;;
5776;SDS011;2914;42.668;23.346;2023-02-12T06:55:24;24.40;;;11.97;;
5776;SDS011;2914;42.668;23.346;2023-02-12T06:57:53;19.17;;;11.43;;
5776;SDS011;2914;42.668;23.346;2023-02-12T07:00:22;22.63;;;10.77;;
5776;SDS011;2914;42.668;23.346;2023-02-12T07:02:52;26.07;;;12.00;;
5776;SDS011;2914;42.668;23.346;2023-02-12T07:05:22;25.97;;;11.43;;
5776;SDS011;2914;42.668;23.346;2023-02-12T07:07:51;27.07;;;11.67;;
5776;SDS011;2914;42.668;23.346;2023-02-12T07:10:20;26.03;;;11.30;;
5776;SDS011;2914;42.668;23.346;2023-02-12T07:12:57;19.07;;;10.93;;
5776;SDS011;2914;42.668;23.346;2023-02-12T07:15:26;31.17;;;12.50;;
5776;SDS011;2914;42.668;23.346;2023-02-12T07:17:55;24.47;;;12.13;;
5776;SDS011;2914;42.668;23.346;2023-02-12T07:21:49;26.50;;;12.17;;
5776;SDS011;2914;42.668;23.346;2023-02-12T07:24:18;24.63;;;11.80;;
5776;SDS011;2914;42.668;23.346;2023-02-12T07:26:47;24.40;;;12.10;;
5776;SDS011;2914;42.668;23.346;2023-02-12T07:29:16;18.33;;;11.00;;
5776;SDS011;2914;42.668;23.346;2023-02-12T07:31:45;27.77;;;12.20;;
5776;SDS011;2914;42.668;23.346;2023-02-12T07:34:14;22.90;;;12.83;;
5776;SDS011;2914;42.668;23.346;2023-02-12T07:36:44;23.60;;;13.20;;
5776;SDS011;2914;42.668;23.346;2023-02-12T07:39:13;32.63;;;14.47;;
5776;SDS011;2914;42.668;23.346;2023-02-12T07:41:42;27.10;;;14.40;;
5776;SDS011;2914;42.668;23.346;2023-02-12T07:44:11;24.77;;;12.60;;
5776;SDS011;2914;42.668;23.346;2023-02-12T07:46:41;44.43;;;16.53;;
5776;SDS011;2914;42.668;23.346;2023-02-12T07:49:12;31.33;;;13.77;;
5776;SDS011;2914;42.668;23.346;2023-02-12T07:51:42;30.67;;;14.63;;
5776;SDS011;2914;42.668;23.346;2023-02-12T07:54:12;37.60;;;14.70;;
5776;SDS011;2914;42.668;23.346;2023-02-12T07:56:42;33.23;;;14.60;;
5776;SDS011;2914;42.668;23.346;2023-02-12T07:59:13;35.97;;;13.87;;
5776;SDS011;2914;42.668;23.346;2023-02-12T08:01:44;32.20;;;13.50;;
5776;SDS011;2914;42.668;23.346;2023-02-12T08:05:07;29.33;;;14.43;;
5776;SDS011;2914;42.668;23.346;2023-02-12T08:07:36;23.67;;;13.50;;
5776;SDS011;2914;42.668;23.346;2023-02-12T08:10:06;31.43;;;15.63;;
5776;SDS011;2914;42.668;23.346;2023-02-12T08:12:36;32.73;;;15.20;;
5776;SDS011;2914;42.668;23.346;2023-02-12T08:15:06;28.00;;;13.93;;
5776;SDS011;2914;42.668;23.346;2023-02-12T08:17:36;29.87;;;15.00;;
5776;SDS011;2914;42.668;23.346;2023-02-12T08:20:08;30.37;;;14.00;;
5776;SDS011;2914;42.668;23.346;2023-02-12T08:22:37;41.00;;;16.53;;
5776;SDS011;2914;42.668;23.346;2023-02-12T08:25:07;27.67;;;14.00;;
5776;SDS011;2914;42.668;23.346;2023-02-12T08:27:36;35.50;;;15.67;;
5776;SDS011;2914;42.668;23.346;2023-02-12T08:30:08;30.80;;;15.93;;
5776;SDS011;2914;42.668;23.346;2023-02-12T08:32:48;28.33;;;15.00;;
5776;SDS011;2914;42.668;23.346;2023-02-12T08:35:17;29.70;;;15.00;;
5776;SDS011;2914;42.668;23.346;2023-02-12T08:37:46;36.50;;;16.40;;
5776;SDS011;2914;42.668;23.346;2023-02-12T08:40:15;31.77;;;16.13;;
5776;SDS011;2914;42.668;23.346;2023-02-12T08:42:45;36.37;;;17.87;;
5776;SDS011;2914;42.668;23.346;2023-02-12T08:45:14;39.63;;;17.20;;
5776;SDS011;2914;42.668;23.346;2023-02-12T08:47:43;43.63;;;18.03;;
5776;SDS011;2914;42.668;23.346;2023-02-12T08:50:14;39.53;;;19.00;;
5776;SDS011;2914;42.668;23.346;2023-02-12T08:52:43;42.27;;;17.40;;
5776;SDS011;2914;42.668;23.346;2023-02-12T08:55:12;45.50;;;18.20;;
5776;SDS011;2914;42.668;23.346;2023-02-12T08:57:41;43.63;;;20.67;;
5776;SDS011;2914;42.668;23.346;2023-02-12T09:00:11;39.87;;;18.70;;
5776;SDS011;2914;42.668;23.346;2023-02-12T09:02:51;33.70;;;17.43;;
5776;SDS011;2914;42.668;23.346;2023-02-12T09:05:20;41.47;;;17.80;;
5776;SDS011;2914;42.668;23.346;2023-02-12T09:07:50;39.40;;;18.90;;
5776;SDS011;2914;42.668;23.346;2023-02-12T09:10:19;35.10;;;16.57;;
5776;SDS011;2914;42.668;23.346;2023-02-12T09:12:48;43.53;;;19.10;;
5776;SDS011;2914;42.668;23.346;2023-02-12T09:15:17;41.70;;;18.80;;
5776;SDS011;2914;42.668;23.346;2023-02-12T09:17:46;41.67;;;18.27;;
5776;SDS011;2914;42.668;23.346;2023-02-12T09:20:15;33.40;;;16.30;;
5776;SDS011;2914;42.668;23.346;2023-02-12T09:23:20;32.30;;;17.30;;
5776;SDS011;2914;42.668;23.346;2023-02-12T09:25:49;31.10;;;17.30;;
5776;SDS011;2914;42.668;23.346;2023-02-12T09:28:18;28.30;;;17.60;;
5776;SDS011;2914;42.668;23.346;2023-02-12T09:30:47;35.80;;;18.87;;
5776;SDS011;2914;42.668;23.346;2023-02-12T09:33:17;36.23;;;17.47;;
5776;SDS011;2914;42.668;23.346;2023-02-12T09:35:47;35.50;;;19.57;;
5776;SDS011;2914;42.668;23.346;2023-02-12T09:38:17;31.57;;;16.17;;
5776;SDS011;2914;42.668;23.346;2023-02-12T09:40:47;37.10;;;18.07;;
5776;SDS011;2914;42.668;23.346;2023-02-12T09:43:19;32.80;;;17.57;;
5776;SDS011;2914;42.668;23.346;2023-02-12T09:45:53;33.83;;;17.17;;
5776;SDS011;2914;42.668;23.346;2023-02-12T09:48:31;38.67;;;18.20;;
5776;SDS011;2914;42.668;23.346;2023-02-12T09:51:14;50.30;;;18.80;;
5776;SDS011;2914;42.668;23.346;2023-02-12T09:53:44;38.10;;;17.57;;
5776;SDS011;2914;42.668;23.346;2023-02-12T10:00:10;34.40;;;17.80;;
5776;SDS011;2914;42.668;23.346;2023-02-12T10:02:43;41.03;;;19.80;;
5776;SDS011;2914;42.668;23.346;2023-02-12T10:05:14;37.47;;;17.77;;
5776;SDS011;2914;42.668;23.346;2023-02-12T10:07:52;39.93;;;19.80;;
5776;SDS011;2914;42.668;23.346;2023-02-12T10:10:41;36.10;;;18.03;;
5776;SDS011;2914;42.668;23.346;2023-02-12T10:13:27;35.87;;;18.37;;
5776;SDS011;2914;42.668;23.346;2023-02-12T10:18:47;54.00;;;20.43;;
5776;SDS011;2914;42.668;23.346;2023-02-12T10:21:22;37.77;;;17.33;;
5776;SDS011;2914;42.668;23.346;2023-02-12T10:24:04;41.03;;;20.67;;
5776;SDS011;2914;42.668;23.346;2023-02-12T10:26:58;47.60;;;20.90;;
5776;SDS011;2914;42.668;23.346;2023-02-12T10:29:30;37.57;;;18.17;;
5776;SDS011;2914;42.668;23.346;2023-02-12T10:32:02;40.87;;;20.80;;
5776;SDS011;2914;42.668;23.346;2023-02-12T10:34:46;41.77;;;20.77;;
5776;SDS011;2914;42.668;23.346;2023-02-12T10:37:21;41.70;;;21.80;;
5776;SDS011;2914;42.668;23.346;2023-02-12T10:40:04;49.33;;;22.50;;
5776;SDS011;2914;42.668;23.346;2023-02-12T10:42:37;51.50;;;23.47;;
5776;SDS011;2914;42.668;23.346;2023-02-12T10:45:12;40.77;;;20.53;;
5776;SDS011;2914;42.668;23.346;2023-02-12T10:47:51;46.97;;;22.13;;
5776;SDS011;2914;42.668;23.346;2023-02-12T10:50:24;50.13;;;23.20;;
5776;SDS011;2914;42.668;23.346;2023-02-12T10:53:12;44.03;;;23.27;;
5776;SDS011;2914;42.668;23.346;2023-02-12T10:55:44;42.00;;;21.50;;
5776;SDS011;2914;42.668;23.346;2023-02-12T10:58:41;41.17;;;22.57;;
5776;SDS011;2914;42.668;23.346;2023-02-12T11:01:14;46.23;;;22.97;;
5776;SDS011;2914;42.668;23.346;2023-02-12T11:03:52;58.73;;;22.80;;
5776;SDS011;2914;42.668;23.346;2023-02-12T11:06:24;51.87;;;23.67;;
5776;SDS011;2914;42.668;23.346;2023-02-12T11:09:03;46.23;;;22.67;;
5776;SDS011;2914;42.668;23.346;2023-02-12T11:11:35;41.53;;;22.50;;
5776;SDS011;2914;42.668;23.346;2023-02-12T11:14:15;42.40;;;21.17;;
5776;SDS011;2914;42.668;23.346;2023-02-12T11:16:50;43.60;;;22.33;;
5776;SDS011;2914;42.668;23.346;2023-02-12T11:19:27;46.73;;;22.40;;
5776;SDS011;2914;42.668;23.346;2023-02-12T11:22:04;42.13;;;21.20;;
5776;SDS011;2914;42.668;23.346;2023-02-12T11:24:36;52.37;;;23.97;;
5776;SDS011;2914;42.668;23.346;2023-02-12T11:27:21;50.33;;;23.00;;
5776;SDS011;2914;42.668;23.346;2023-02-12T11:30:12;98.57;;;36.80;;
5776;SDS011;2914;42.668;23.346;2023-02-12T11:33:09;60.50;;;28.57;;
5776;SDS011;2914;42.668;23.346;2023-02-12T11:35:51;54.60;;;27.23;;
5776;SDS011;2914;42.668;23.346;2023-02-12T11:38:32;47.17;;;24.60;;
5776;SDS011;2914;42.668;23.346;2023-02-12T11:41:07;49.50;;;23.77;;
5776;SDS011;2914;42.668;23.346;2023-02-12T11:43:48;56.63;;;25.13;;
5776;SDS011;2914;42.668;23.346;2023-02-12T11:46:19;43.43;;;22.20;;
5776;SDS011;2914;42.668;23.346;2023-02-12T11:48:51;52.00;;;24.83;;
5776;SDS011;2914;42.668;23.346;2023-02-12T11:51:23;51.97;;;22.90;;
5776;SDS011;2914;42.668;23.346;2023-02-12T11:53:55;55.77;;;25.20;;
5776;SDS011;2914;42.668;23.346;2023-02-12T11:56:38;60.53;;;25.70;;
5776;SDS011;2914;42.668;23.346;2023-02-12T11:59:11;47.47;;;23.73;;
5776;SDS011;2914;42.668;23.346;2023-02-12T12:01:54;49.60;;;22.47;;
5776;SDS011;2914;42.668;23.346;2023-02-12T12:04:25;38.97;;;20.80;;
5776;SDS011;2914;42.668;23.346;2023-02-12T12:07:05;47.93;;;21.60;;
5776;SDS011;2914;42.668;23.346;2023-02-12T12:09:44;56.00;;;24.90;;
5776;SDS011;2914;42.668;23.346;2023-02-12T12:12:16;45.43;;;22.77;;
5776;SDS011;2914;42.668;23.346;2023-02-12T12:17:33;45.53;;;22.40;;
5776;SDS011;2914;42.668;23.346;2023-02-12T12:20:12;48.67;;;23.50;;
5776;SDS011;2914;42.668;23.346;2023-02-12T12:22:45;52.33;;;24.90;;
5776;SDS011;2914;42.668;23.346;2023-02-12T12:25:24;49.20;;;23.77;;
5776;SDS011;2914;42.668;23.346;2023-02-12T12:28:04;46.13;;;22.67;;
5776;SDS011;2914;42.668;23.346;2023-02-12T12:30:43;43.93;;;24.23;;
5776;SDS011;2914;42.668;23.346;2023-02-12T12:33:32;49.30;;;24.00;;
5776;SDS011;2914;42.668;23.346;2023-02-12T12:39:27;43.20;;;22.77;;
5776;SDS011;2914;42.668;23.346;2023-02-12T12:42:13;50.40;;;22.30;;
5776;SDS011;2914;42.668;23.346;2023-02-12T12:44:50;44.20;;;23.03;;
5776;SDS011;2914;42.668;23.346;2023-02-12T12:47:25;42.97;;;21.67;;
5776;SDS011;2914;42.668;23.346;2023-02-12T12:50:00;44.57;;;22.30;;
5776;SDS011;2914;42.668;23.346;2023-02-12T12:52:52;50.30;;;24.30;;
5776;SDS011;2914;42.668;23.346;2023-02-12T12:55:50;46.77;;;22.70;;
5776;SDS011;2914;42.668;23.346;2023-02-12T12:58:31;47.07;;;21.73;;
5776;SDS011;2914;42.668;23.346;2023-02-12T13:01:08;46.27;;;24.27;;
5776;SDS011;2914;42.668;23.346;2023-02-12T13:07:23;36.53;;;20.43;;
5776;SDS011;2914;42.668;23.346;2023-02-12T13:10:04;51.53;;;22.83;;
5776;SDS011;2914;42.668;23.346;2023-02-12T13:12:51;48.07;;;22.87;;
5776;SDS011;2914;42.668;23.346;2023-02-12T13:15:32;40.93;;;21.93;;
5776;SDS011;2914;42.668;23.346;2023-02-12T13:18:14;42.30;;;21.97;;
5776;SDS011;2914;42.668;23.346;2023-02-12T13:20:48;46.40;;;22.50;;
5776;SDS011;2914;42.668;23.346;2023-02-12T13:23:22;42.80;;;22.93;;
5776;SDS011;2914;42.668;23.346;2023-02-12T13:28:30;49.07;;;22.27;;
5776;SDS011;2914;42.668;23.346;2023-02-12T13:31:16;42.33;;;21.57;;
5776;SDS011;2914;42.668;23.346;2023-02-12T13:33:48;42.80;;;21.93;;
5776;SDS011;2914;42.668;23.346;2023-02-12T13:36:33;41.23;;;21.20;;
5776;SDS011;2914;42.668;23.346;2023-02-12T13:39:06;40.37;;;21.67;;
5776;SDS011;2914;42.668;23.346;2023-02-12T13:41:44;41.40;;;21.53;;
5776;SDS011;2914;42.668;23.346;2023-02-12T13:44:17;44.70;;;23.73;;
5776;SDS011;2914;42.668;23.346;2023-02-12T13:46:51;58.07;;;23.50;;
5776;SDS011;2914;42.668;23.346;2023-02-12T13:49:38;45.07;;;23.20;;
5776;SDS011;2914;42.668;23.346;2023-02-12T13:52:10;77.47;;;28.17;;
5776;SDS011;2914;42.668;23.346;2023-02-12T13:54:52;50.50;;;24.97;;
5776;SDS011;2914;42.668;23.346;2023-02-12T13:57:25;49.87;;;24.87;;
5776;SDS011;2914;42.668;23.346;2023-02-12T14:00:23;42.90;;;23.27;;
5776;SDS011;2914;42.668;23.346;2023-02-12T14:03:15;44.60;;;22.53;;
5776;SDS011;2914;42.668;23.346;2023-02-12T14:05:46;53.07;;;25.50;;
5776;SDS011;2914;42.668;23.346;2023-02-12T14:08:26;43.40;;;23.50;;
5776;SDS011;2914;42.668;23.346;2023-02-12T14:11:06;49.80;;;24.30;;
5776;SDS011;2914;42.668;23.346;2023-02-12T14:13:45;50.63;;;25.00;;
5776;SDS011;2914;42.668;23.346;2023-02-12T14:16:37;54.13;;;25.70;;
5776;SDS011;2914;42.668;23.346;2023-02-12T14:25:38;46.50;;;24.63;;
5776;SDS011;2914;42.668;23.346;2023-02-12T14:28:17;48.77;;;23.87;;
5776;SDS011;2914;42.668;23.346;2023-02-12T14:31:30;49.27;;;24.00;;
5776;SDS011;2914;42.668;23.346;2023-02-12T14:37:35;44.07;;;24.40;;
5776;SDS011;2914;42.668;23.346;2023-02-12T14:46:45;48.27;;;24.43;;
5776;SDS011;2914;42.668;23.346;2023-02-12T14:49:19;51.90;;;26.07;;
5776;SDS011;2914;42.668;23.346;2023-02-12T14:51:54;59.33;;;26.30;;
5776;SDS011;2914;42.668;23.346;2023-02-12T14:54:34;67.53;;;24.87;;
5776;SDS011;2914;42.668;23.346;2023-02-12T14:57:05;55.30;;;26.33;;
5776;SDS011;2914;42.668;23.346;2023-02-12T14:59:44;67.67;;;28.60;;
5776;SDS011;2914;42.668;23.346;2023-02-12T15:02:17;59.30;;;26.53;;
5776;SDS011;2914;42.668;23.346;2023-02-12T15:04:47;61.30;;;28.40;;
5776;SDS011;2914;42.668;23.346;2023-02-12T15:09:56;81.00;;;29.60;;
5776;SDS011;2914;42.668;23.346;2023-02-12T15:12:26;55.37;;;28.63;;
5776;SDS011;2914;42.668;23.346;2023-02-12T15:15:06;59.60;;;26.57;;
5776;SDS011;2914;42.668;23.346;2023-02-12T15:17:40;65.17;;;29.57;;
5776;SDS011;2914;42.668;23.346;2023-02-12T15:20:15;57.13;;;28.20;;
5776;SDS011;2914;42.668;23.346;2023-02-12T15:22:45;70.20;;;29.70;;
5776;SDS011;2914;42.668;23.346;2023-02-12T15:25:15;62.70;;;29.87;;
5776;SDS011;2914;42.668;23.346;2023-02-12T15:28:41;55.80;;;29.20;;
5776;SDS011;2914;42.668;23.346;2023-02-12T15:31:15;57.63;;;27.80;;
5776;SDS011;2914;42.668;23.346;2023-02-12T15:33:46;67.20;;;31.20;;
5776;SDS011;2914;42.668;23.346;2023-02-12T15:36:19;57.17;;;29.93;;
5776;SDS011;2914;42.668;23.346;2023-02-12T15:39:26;54.33;;;28.70;;
5776;SDS011;2914;42.668;23.346;2023-02-12T15:41:57;54.97;;;29.20;;
5776;SDS011;2914;42.668;23.346;2023-02-12T15:44:27;58.27;;;29.33;;
5776;SDS011;2914;42.668;23.346;2023-02-12T15:47:10;64.57;;;32.30;;
5776;SDS011;2914;42.668;23.346;2023-02-12T15:49:42;70.20;;;30.77;;
5776;SDS011;2914;42.668;23.346;2023-02-12T15:52:14;69.37;;;32.10;;
5776;SDS011;2914;42.668;23.346;2023-02-12T15:54:46;66.80;;;30.60;;
5776;SDS011;2914;42.668;23.346;2023-02-12T15:57:19;66.63;;;29.80;;
5776;SDS011;2914;42.668;23.346;2023-02-12T15:59:50;74.80;;;32.87;;
5776;SDS011;2914;42.668;23.346;2023-02-12T16:02:27;73.73;;;32.57;;
5776;SDS011;2914;42.668;23.346;2023-02-12T16:04:54;67.63;;;31.10;;
5776;SDS011;2914;42.668;23.346;2023-02-12T16:07:33;65.20;;;30.63;;
5776;SDS011;2914;42.668;23.346;2023-02-12T16:10:05;71.27;;;32.03;;
5776;SDS011;2914;42.668;23.346;2023-02-12T16:12:43;61.87;;;30.57;;
5776;SDS011;2914;42.668;23.346;2023-02-12T16:15:24;66.73;;;32.03;;